Airfield :
LOGIN :

Register | Disclaimer

   EN    FR    IT 

 










Legend :    VFR   Marginal VFR   IFR   Intensive IFR   Very Intensive IFR
Visi :
Ceiling :
>= 8 km
>= 3000ft
5 to 8 km
1000 to 3000 ft
1500m to 5 km
500 to 1000 ft
800 to 1500m
200 to 500 ft
< 800m
< 200 ft
Symbols :   Thunderstorms  Fog  Heavy snow  Heavy precipitations  Wind > 20 kt
SIGMETs :     Misc.  Thunderstorms  Icing  Turbulence  Mountain Waves  Volcanic Ashes






- Airport Elevation : 10 ft
- IATA code : AAL


EKYT - Aalborg

CURRENT METAR :
  • 120020Z AUTO 13016KT 9999 BKN026/// BKN030/// 05/03 Q0999

EXPIRED METARs :
  • 112350Z AUTO 13013KT 9999 FEW026/// SCT033/// BKN130/// 05/03 Q1000
  • 112320Z AUTO 14013KT 9999 FEW019/// BKN031/// BKN130/// 05/03 Q1000
  • 112250Z AUTO 13013KT 9999 SCT018/// BKN021/// OVC025/// 05/03 Q1000
  • 112220Z AUTO 14015KT 9999 FEW018/// BKN025/// BKN029/// 05/03 Q1001
  • 112150Z 14013KT 9999 BKN035 05/03 Q1001

TAF TAF EKYT
Valid from the 12 at 00:00 until the 13 at 00:00 UTC


112310Z 1200/1224 14015KT 9999 SCT012 BKN030
TEMPO 1200/1206 7000 -RA BKN012
TEMPO 1206/1216 17015G25KT 4000 RA BKN008 SCT030TCU
BECMG 1216/1219 17012KT



MET'MAP, your aeronautical weather chart ! - Copyright ORBIFLY December 2007 - Disclaimer

ORBIFLY MET'MAP TEAM :

Programming & Development : Alexandra Zaïnal
Concept & Development : Baudouin d'Aumeries
Co-Development & Prog : Marc-Olivier Méhu
Technical & hardware support : Manuel Goepfert

Contact : metmap@orbifly.com




SOURCES & CREDITS :

   NOAA